Wetterdaten: Woche 13.06.16 - 19.06.16 (KW24)
Datum Zeit Temp. A. Feuchte A. Luftdruck Regen Wind Richtung Sonnenschein ET UV Solar Taupunkt Windchill Windben Empfang
13.06.2016 00:00 14,7 C 92 % 1006,6 hPa 0,0 l/m 10,3 km/h (2 Bft) S-SW 0,00 h 0,000 mm 0,0 UV-I 0 W/m 13,3 C 12,7 C 15,3 km/h (3 Bft) 99,58 %
13.06.2016 01:00 14,7 C 91 % 1006,5 hPa 0,0 l/m 10,4 km/h (2 Bft) SW 0,00 h 0,000 mm 0,0 UV-I 0 W/m 13,2 C 12,7 C 14,7 km/h (3 Bft) 97,72 %
13.06.2016 02:00 14,6 C 91 % 1006,0 hPa 0,0 l/m 10,4 km/h (2 Bft) SW 0,00 h 0,025 mm 0,0 UV-I 0 W/m 13,1 C 12,5 C 14,7 km/h (3 Bft) 99,74 %
13.06.2016 03:00 14,2 C 91 % 1005,6 hPa 0,0 l/m 9,6 km/h (2 Bft) SW 0,00 h 0,026 mm 0,0 UV-I 0 W/m 12,7 C 12,5 C 13,6 km/h (3 Bft) 97,75 %
13.06.2016 04:00 14,1 C 91 % 1005,5 hPa 0,0 l/m 9,8 km/h (2 Bft) SW 0,00 h 0,000 mm 0,0 UV-I 0 W/m 12,6 C 12,3 C 14,3 km/h (3 Bft) 99,36 %
13.06.2016 05:00 14,3 C 90 % 1005,4 hPa 0,0 l/m 9,9 km/h (2 Bft) W-SW 0,00 h 0,025 mm 0,0 UV-I 24 W/m 12,7 C 12,4 C 13,8 km/h (3 Bft) 97,76 %
13.06.2016 06:00 14,6 C 90 % 1005,3 hPa 0,0 l/m 11,9 km/h (2 Bft) W-SW 0,00 h 0,026 mm 0,0 UV-I 53 W/m 12,9 C 11,8 C 16,8 km/h (3 Bft) 99,27 %
13.06.2016 07:00 15,0 C 90 % 1005,1 hPa 0,0 l/m 11,3 km/h (2 Bft) SW 0,00 h 0,050 mm 0,6 UV-I 109 W/m 13,3 C 12,6 C 16,2 km/h (3 Bft) 98,30 %
13.06.2016 08:00 15,9 C 87 % 1004,9 hPa 0,0 l/m 13,3 km/h (3 Bft) SW 0,18 h 0,077 mm 1,0 UV-I 236 W/m 13,6 C 12,9 C 18,9 km/h (3 Bft) 98,90 %
13.06.2016 09:00 16,4 C 84 % 1004,6 hPa 0,0 l/m 11,3 km/h (2 Bft) SW 0,12 h 0,152 mm 1,3 UV-I 225 W/m 13,7 C 14,2 C 16,4 km/h (3 Bft) 98,18 %
13.06.2016 10:00 17,1 C 80 % 1004,3 hPa 0,0 l/m 11,9 km/h (2 Bft) W-SW 0,02 h 0,152 mm 2,0 UV-I 284 W/m 13,6 C 14,9 C 17,8 km/h (3 Bft) 99,42 %
13.06.2016 11:00 15,4 C 92 % 1004,1 hPa 1,6 l/m 9,5 km/h (2 Bft) SW 0,35 h 0,204 mm 2,5 UV-I 344 W/m 14,1 C 13,9 C 14,6 km/h (3 Bft) 97,90 %
13.06.2016 12:00 18,4 C 80 % 1003,2 hPa 0,0 l/m 9,7 km/h (2 Bft) W-SW 0,68 h 0,203 mm 5,1 UV-I 738 W/m 14,9 C 17,1 C 14,6 km/h (3 Bft) 98,69 %
13.06.2016 13:00 17,4 C 85 % 1002,4 hPa 2,8 l/m 5,9 km/h (2 Bft) W-SW 0,12 h 0,406 mm 2,5 UV-I 318 W/m 14,8 C 16,5 C 9,2 km/h (2 Bft) 97,42 %
13.06.2016 14:00 17,4 C 88 % 1002,0 hPa 0,4 l/m 6,4 km/h (2 Bft) W 0,07 h 0,178 mm 2,0 UV-I 274 W/m 15,4 C 16,7 C 9,6 km/h (2 Bft) 99,47 %
13.06.2016 15:00 17,9 C 83 % 1001,5 hPa 0,0 l/m 4,8 km/h (1 Bft) W-SW 0,47 h 0,152 mm 3,1 UV-I 519 W/m 15,0 C 17,9 C 7,5 km/h (2 Bft) 98,35 %
13.06.2016 16:00 17,5 C 85 % 1001,2 hPa 0,2 l/m 3,8 km/h (1 Bft) SW 0,00 h 0,280 mm 0,7 UV-I 125 W/m 14,9 C 17,4 C 5,6 km/h (1 Bft) 97,37 %
13.06.2016 17:00 18,4 C 80 % 1000,7 hPa 0,6 l/m 5,3 km/h (1 Bft) SW 0,35 h 0,076 mm 1,2 UV-I 228 W/m 14,8 C 18,1 C 7,9 km/h (2 Bft) 98,23 %
13.06.2016 18:00 16,5 C 89 % 1001,0 hPa 6,2 l/m 9,2 km/h (2 Bft) S-SW 0,42 h 0,152 mm 0,5 UV-I 197 W/m 14,7 C 15,3 C 13,1 km/h (3 Bft) 97,41 %
13.06.2016 19:00 16,6 C 87 % 1001,0 hPa 0,0 l/m 10,8 km/h (2 Bft) S-SW 0,03 h 0,127 mm 0,0 UV-I 63 W/m 14,4 C 14,6 C 16,1 km/h (3 Bft) 97,92 %
13.06.2016 20:00 15,6 C 88 % 1001,4 hPa 0,0 l/m 10,1 km/h (2 Bft) SW 0,00 h 0,051 mm 0,0 UV-I 16 W/m 13,5 C 13,8 C 14,5 km/h (3 Bft) 99,53 %
13.06.2016 21:00 14,9 C 93 % 1002,0 hPa 0,8 l/m 9,0 km/h (2 Bft) SW 0,00 h 0,026 mm 0,0 UV-I 0 W/m 13,8 C 13,4 C 13,3 km/h (3 Bft) 98,07 %
13.06.2016 22:00 14,4 C 93 % 1001,9 hPa 0,2 l/m 7,6 km/h (2 Bft) S-SW 0,00 h 0,000 mm 0,0 UV-I 0 W/m 13,4 C 13,6 C 10,8 km/h (2 Bft) 99,32 %
13.06.2016 23:00 14,0 C 93 % 1001,9 hPa 0,0 l/m 5,6 km/h (1 Bft) SW 0,00 h 0,000 mm 0,0 UV-I 0 W/m 13,0 C 13,7 C 8,0 km/h (2 Bft) 97,93 %
14.06.2016 00:00 13,4 C 95 % 1001,7 hPa 0,0 l/m 3,3 km/h (1 Bft) S-SW 0,00 h 0,000 mm 0,0 UV-I 0 W/m 12,6 C 13,4 C 4,7 km/h (1 Bft) 99,38 %
14.06.2016 01:00 12,9 C 96 % 1001,5 hPa 0,0 l/m 4,0 km/h (1 Bft) SW 0,00 h 0,000 mm 0,0 UV-I 0 W/m 12,2 C 12,9 C 5,3 km/h (1 Bft) 98,20 %
14.06.2016 02:00 12,8 C 96 % 1001,3 hPa 0,2 l/m 5,7 km/h (1 Bft) SW 0,00 h 0,000 mm 0,0 UV-I 0 W/m 12,2 C 12,7 C 8,1 km/h (2 Bft) 99,23 %
14.06.2016 03:00 12,9 C 96 % 1001,3 hPa 0,0 l/m 5,7 km/h (1 Bft) SW 0,00 h 0,000 mm 0,0 UV-I 0 W/m 12,2 C 12,8 C 8,0 km/h (2 Bft) 97,74 %
14.06.2016 04:00 13,3 C 95 % 1001,5 hPa 0,0 l/m 5,7 km/h (1 Bft) SW 0,00 h 0,000 mm 0,0 UV-I 0 W/m 12,6 C 13,3 C 7,9 km/h (2 Bft) 99,32 %
14.06.2016 05:00 13,8 C 94 % 1001,8 hPa 0,0 l/m 6,6 km/h (2 Bft) SW 0,00 h 0,000 mm 0,0 UV-I 16 W/m 12,8 C 13,3 C 9,8 km/h (2 Bft) 98,10 %
14.06.2016 06:00 14,1 C 93 % 1001,9 hPa 0,0 l/m 10,6 km/h (2 Bft) SW 0,05 h 0,000 mm 0,0 UV-I 76 W/m 12,9 C 12,0 C 15,1 km/h (3 Bft) 99,29 %
14.06.2016 07:00 14,1 C 92 % 1002,2 hPa 0,0 l/m 11,7 km/h (2 Bft) W-SW 0,00 h 0,051 mm 0,5 UV-I 113 W/m 12,7 C 11,4 C 16,7 km/h (3 Bft) 97,94 %
14.06.2016 08:00 14,9 C 89 % 1002,3 hPa 0,0 l/m 10,7 km/h (2 Bft) W-SW 0,42 h 0,076 mm 1,1 UV-I 300 W/m 13,0 C 12,8 C 15,5 km/h (3 Bft) 99,74 %
14.06.2016 09:00 15,8 C 84 % 1002,3 hPa 0,0 l/m 11,5 km/h (2 Bft) W-SW 0,18 h 0,178 mm 1,7 UV-I 324 W/m 13,2 C 13,5 C 16,6 km/h (3 Bft) 98,22 %
14.06.2016 10:00 16,3 C 83 % 1002,4 hPa 0,0 l/m 8,6 km/h (2 Bft) W-SW 0,32 h 0,203 mm 1,9 UV-I 331 W/m 13,3 C 15,2 C 13,2 km/h (3 Bft) 99,53 %
14.06.2016 11:00 16,9 C 79 % 1002,2 hPa 0,0 l/m 7,5 km/h (2 Bft) W-SW 0,05 h 0,203 mm 2,7 UV-I 398 W/m 13,3 C 16,2 C 11,3 km/h (2 Bft) 97,77 %
14.06.2016 12:00 17,7 C 75 % 1001,8 hPa 0,0 l/m 5,1 km/h (1 Bft) W-SW 0,52 h 0,229 mm 3,7 UV-I 512 W/m 13,2 C 17,5 C 8,1 km/h (2 Bft) 99,34 %
14.06.2016 13:00 18,4 C 72 % 1001,1 hPa 0,0 l/m 2,9 km/h (1 Bft) NW 0,20 h 0,305 mm 3,4 UV-I 424 W/m 13,3 C 18,4 C 4,9 km/h (1 Bft) 97,94 %
14.06.2016 14:00 18,8 C 70 % 1000,5 hPa 0,0 l/m 3,2 km/h (1 Bft) W-SW 0,07 h 0,254 mm 2,8 UV-I 373 W/m 13,1 C 18,7 C 5,2 km/h (1 Bft) 99,23 %
14.06.2016 15:00 19,9 C 66 % 1000,1 hPa 0,0 l/m 3,2 km/h (1 Bft) W-NW 0,92 h 0,228 mm 4,0 UV-I 682 W/m 13,3 C 19,9 C 5,4 km/h (1 Bft) 98,47 %
14.06.2016 16:00 20,8 C 62 % 999,5 hPa 0,0 l/m 3,8 km/h (1 Bft) W-SW 0,98 h 0,381 mm 3,0 UV-I 626 W/m 13,2 C 20,7 C 6,2 km/h (2 Bft) 99,36 %
14.06.2016 17:00 21,2 C 61 % 999,1 hPa 0,0 l/m 2,9 km/h (1 Bft) NO 1,00 h 0,381 mm 1,8 UV-I 511 W/m 13,3 C 21,1 C 5,0 km/h (1 Bft) 98,36 %
14.06.2016 18:00 20,9 C 61 % 998,7 hPa 0,0 l/m 1,9 km/h (1 Bft) N-NO 0,65 h 0,305 mm 0,7 UV-I 251 W/m 13,1 C 20,9 C 3,5 km/h (1 Bft) 99,16 %
14.06.2016 19:00 20,3 C 63 % 998,8 hPa 0,0 l/m 2,4 km/h (1 Bft) S 0,38 h 0,152 mm 0,0 UV-I 120 W/m 13,0 C 20,3 C 4,0 km/h (1 Bft) 98,52 %
14.06.2016 20:00 18,6 C 79 % 999,0 hPa 0,0 l/m 1,3 km/h (1 Bft) S 0,02 h 0,077 mm 0,0 UV-I 31 W/m 14,9 C 18,6 C 2,3 km/h (1 Bft) 99,42 %
14.06.2016 21:00 16,4 C 80 % 1000,0 hPa 0,8 l/m 17,4 km/h (3 Bft) SW 0,00 h 0,025 mm 0,0 UV-I 0 W/m 12,9 C 12,4 C 25,7 km/h (4 Bft) 98,66 %
14.06.2016 22:00 13,7 C 93 % 1001,0 hPa 5,0 l/m 14,4 km/h (3 Bft) SW 0,00 h 0,051 mm 0,0 UV-I 0 W/m 12,6 C 9,9 C 20,5 km/h (4 Bft) 92,31 %
14.06.2016 23:00 13,3 C 95 % 1001,1 hPa 0,6 l/m 8,7 km/h (2 Bft) SW 0,00 h 0,025 mm 0,0 UV-I 0 W/m 12,5 C 12,0 C 12,8 km/h (3 Bft) 98,37 %
15.06.2016 00:00 13,3 C 95 % 1000,8 hPa 0,4 l/m 5,9 km/h (2 Bft) SW 0,00 h 0,000 mm 0,0 UV-I 0 W/m 12,5 C 13,2 C 8,7 km/h (2 Bft) 98,71 %
15.06.2016 01:00 13,3 C 95 % 1000,8 hPa 0,6 l/m 10,0 km/h (2 Bft) SW 0,00 h 0,000 mm 0,0 UV-I 0 W/m 12,5 C 11,3 C 14,3 km/h (3 Bft) 98,12 %
15.06.2016 02:00 13,2 C 96 % 1000,4 hPa 1,2 l/m 6,6 km/h (2 Bft) SW 0,00 h 0,000 mm 0,0 UV-I 0 W/m 12,6 C 12,8 C 9,7 km/h (2 Bft) 99,22 %
15.06.2016 03:00 13,3 C 96 % 1000,3 hPa 0,2 l/m 8,8 km/h (2 Bft) W-SW 0,00 h 0,000 mm 0,0 UV-I 0 W/m 12,6 C 11,8 C 12,3 km/h (3 Bft) 98,42 %
15.06.2016 04:00 13,4 C 95 % 1000,3 hPa 0,0 l/m 12,5 km/h (3 Bft) SW 0,00 h 0,000 mm 0,0 UV-I 0 W/m 12,6 C 10,3 C 17,7 km/h (3 Bft) 99,17 %
15.06.2016 05:00 12,7 C 94 % 1000,5 hPa 0,8 l/m 17,0 km/h (3 Bft) SW 0,00 h 0,000 mm 0,0 UV-I 13 W/m 11,8 C 7,8 C 23,8 km/h (4 Bft) 98,07 %
15.06.2016 06:00 12,0 C 94 % 1000,7 hPa 0,0 l/m 15,4 km/h (3 Bft) SW 0,00 h 0,025 mm 0,0 UV-I 45 W/m 11,2 C 7,5 C 21,8 km/h (4 Bft) 99,41 %
15.06.2016 07:00 12,2 C 94 % 1001,2 hPa 0,0 l/m 16,3 km/h (3 Bft) SW 0,00 h 0,026 mm 0,0 UV-I 59 W/m 11,2 C 7,3 C 22,8 km/h (4 Bft) 98,04 %
15.06.2016 08:00 12,2 C 94 % 1001,8 hPa 0,6 l/m 12,0 km/h (2 Bft) SW 0,00 h 0,051 mm 0,0 UV-I 76 W/m 11,3 C 9,2 C 17,6 km/h (3 Bft) 99,06 %
15.06.2016 09:00 12,3 C 94 % 1002,1 hPa 1,6 l/m 9,5 km/h (2 Bft) SW 0,00 h 0,050 mm 0,5 UV-I 91 W/m 11,3 C 10,4 C 13,8 km/h (3 Bft) 97,66 %
15.06.2016 10:00 12,8 C 94 % 1002,3 hPa 1,0 l/m 7,8 km/h (2 Bft) SW 0,13 h 0,051 mm 1,5 UV-I 237 W/m 11,9 C 11,7 C 11,6 km/h (2 Bft) 99,34 %
15.06.2016 11:00 15,4 C 84 % 1002,2 hPa 0,0 l/m 8,7 km/h (2 Bft) SW 0,88 h 0,127 mm 4,4 UV-I 663 W/m 12,7 C 14,2 C 13,1 km/h (3 Bft) 97,76 %
15.06.2016 12:00 17,2 C 74 % 1002,3 hPa 0,0 l/m 7,9 km/h (2 Bft) W-SW 0,98 h 0,381 mm 4,5 UV-I 625 W/m 12,4 C 16,2 C 12,8 km/h (3 Bft) 98,52 %
15.06.2016 13:00 18,0 C 70 % 1002,4 hPa 0,2 l/m 7,4 km/h (2 Bft) W-SW 0,78 h 0,356 mm 4,2 UV-I 562 W/m 12,4 C 17,2 C 11,1 km/h (2 Bft) 97,89 %
15.06.2016 14:00 19,3 C 62 % 1002,1 hPa 0,0 l/m 6,6 km/h (2 Bft) W-SW 0,93 h 0,355 mm 5,4 UV-I 819 W/m 11,9 C 18,7 C 10,4 km/h (2 Bft) 99,23 %
15.06.2016 15:00 20,1 C 56 % 1001,6 hPa 0,0 l/m 6,3 km/h (2 Bft) W-SW 1,00 h 0,508 mm 4,2 UV-I 825 W/m 11,2 C 19,7 C 10,1 km/h (2 Bft) 98,31 %
15.06.2016 16:00 20,9 C 54 % 1001,4 hPa 0,0 l/m 4,2 km/h (1 Bft) SW 1,00 h 0,483 mm 3,0 UV-I 665 W/m 11,3 C 20,8 C 6,8 km/h (2 Bft) 98,87 %
15.06.2016 17:00 21,1 C 54 % 1001,3 hPa 0,0 l/m 4,0 km/h (1 Bft) NO 1,00 h 0,406 mm 1,8 UV-I 509 W/m 11,5 C 20,9 C 6,5 km/h (2 Bft) 98,30 %
15.06.2016 18:00 20,5 C 58 % 1001,6 hPa 0,0 l/m 4,6 km/h (1 Bft) O-NO 0,72 h 0,331 mm 0,7 UV-I 268 W/m 11,9 C 20,5 C 7,0 km/h (2 Bft) 98,77 %
15.06.2016 19:00 19,4 C 64 % 1002,2 hPa 0,0 l/m 5,3 km/h (1 Bft) N-NO 0,33 h 0,177 mm 0,4 UV-I 111 W/m 12,3 C 19,1 C 7,8 km/h (2 Bft) 98,79 %
15.06.2016 20:00 17,8 C 73 % 1002,9 hPa 0,0 l/m 1,0 km/h (0 Bft) O 0,00 h 0,102 mm 0,0 UV-I 23 W/m 12,9 C 17,8 C 2,4 km/h (1 Bft) 99,12 %
15.06.2016 21:00 16,6 C 81 % 1003,7 hPa 0,0 l/m 0,7 km/h (0 Bft) O 0,00 h 0,025 mm 0,0 UV-I 0 W/m 13,3 C 16,6 C 1,2 km/h (1 Bft) 98,64 %
15.06.2016 22:00 16,1 C 85 % 1004,2 hPa 0,0 l/m 1,4 km/h (1 Bft) SW 0,00 h 0,000 mm 0,0 UV-I 0 W/m 13,6 C 16,1 C 2,6 km/h (1 Bft) 99,30 %
15.06.2016 23:00 15,6 C 85 % 1004,5 hPa 0,0 l/m 3,7 km/h (1 Bft) S 0,00 h 0,000 mm 0,0 UV-I 0 W/m 13,2 C 15,6 C 5,1 km/h (1 Bft) 98,69 %
16.06.2016 00:00 14,9 C 88 % 1004,5 hPa 0,0 l/m 3,3 km/h (1 Bft) S-SW 0,00 h 0,000 mm 0,0 UV-I 0 W/m 12,9 C 14,9 C 4,8 km/h (1 Bft) 99,29 %
16.06.2016 01:00 14,1 C 91 % 1004,5 hPa 0,0 l/m 2,0 km/h (1 Bft) S 0,00 h 0,000 mm 0,0 UV-I 0 W/m 12,6 C 14,1 C 3,4 km/h (1 Bft) 98,50 %
16.06.2016 02:00 13,4 C 93 % 1004,1 hPa 0,0 l/m 1,6 km/h (1 Bft) S 0,00 h 0,000 mm 0,0 UV-I 0 W/m 12,3 C 13,4 C 2,9 km/h (1 Bft) 98,74 %
16.06.2016 03:00 13,3 C 93 % 1003,9 hPa 0,0 l/m 1,1 km/h (1 Bft) S 0,00 h 0,000 mm 0,0 UV-I 0 W/m 12,3 C 13,3 C 2,0 km/h (1 Bft) 98,63 %
16.06.2016 04:00 13,0 C 94 % 1003,5 hPa 0,0 l/m 2,5 km/h (1 Bft) SO 0,00 h 0,000 mm 0,0 UV-I 0 W/m 12,1 C 13,0 C 3,8 km/h (1 Bft) 99,10 %
16.06.2016 05:00 12,6 C 95 % 1003,0 hPa 0,0 l/m 3,4 km/h (1 Bft) O-NO 0,10 h 0,000 mm 0,0 UV-I 24 W/m 11,8 C 12,6 C 4,5 km/h (1 Bft) 98,82 %
16.06.2016 06:00 13,0 C 94 % 1002,6 hPa 0,0 l/m 5,9 km/h (2 Bft) O-NO 0,10 h 0,025 mm 0,0 UV-I 68 W/m 12,1 C 12,8 C 8,6 km/h (2 Bft) 98,76 %
16.06.2016 07:00 14,6 C 89 % 1002,2 hPa 0,0 l/m 9,4 km/h (2 Bft) O-NO 1,00 h 0,051 mm 0,8 UV-I 282 W/m 12,9 C 13,0 C 14,0 km/h (3 Bft) 98,52 %
16.06.2016 08:00 16,9 C 81 % 1001,8 hPa 0,0 l/m 15,6 km/h (3 Bft) O-NO 0,88 h 0,153 mm 1,6 UV-I 417 W/m 13,5 C 13,5 C 21,5 km/h (4 Bft) 98,56 %
16.06.2016 09:00 18,5 C 75 % 1001,3 hPa 0,0 l/m 17,0 km/h (3 Bft) O-NO 0,97 h 0,254 mm 2,4 UV-I 437 W/m 14,0 C 15,0 C 22,4 km/h (4 Bft) 98,84 %
16.06.2016 10:00 20,2 C 72 % 1000,6 hPa 0,0 l/m 12,8 km/h (3 Bft) NO 0,97 h 0,304 mm 3,9 UV-I 615 W/m 15,1 C 18,1 C 19,4 km/h (3 Bft) 98,50 %
16.06.2016 11:00 22,5 C 67 % 1000,1 hPa 0,0 l/m 12,4 km/h (3 Bft) O-NO 1,00 h 0,407 mm 5,3 UV-I 758 W/m 16,1 C 20,8 C 19,1 km/h (3 Bft) 99,30 %
16.06.2016 12:00 24,7 C 62 % 999,6 hPa 0,0 l/m 10,8 km/h (2 Bft) NO 1,00 h 0,508 mm 6,0 UV-I 787 W/m 16,9 C 23,7 C 17,0 km/h (3 Bft) 98,69 %
16.06.2016 13:00 26,1 C 49 % 999,4 hPa 0,0 l/m 10,7 km/h (2 Bft) O 1,00 h 0,559 mm 5,5 UV-I 724 W/m 14,5 C 25,3 C 17,1 km/h (3 Bft) 99,17 %
16.06.2016 14:00 27,2 C 45 % 998,9 hPa 0,0 l/m 12,6 km/h (3 Bft) O-NO 1,00 h 0,558 mm 5,5 UV-I 815 W/m 14,1 C 26,2 C 19,4 km/h (3 Bft) 97,95 %
16.06.2016 15:00 27,6 C 44 % 998,2 hPa 0,0 l/m 13,8 km/h (3 Bft) O-NO 0,77 h 0,610 mm 4,1 UV-I 608 W/m 14,4 C 26,6 C 20,7 km/h (4 Bft) 99,11 %
16.06.2016 16:00 28,1 C 44 % 997,6 hPa 0,0 l/m 15,6 km/h (3 Bft) O-NO 0,97 h 0,508 mm 3,2 UV-I 604 W/m 14,6 C 27,0 C 22,9 km/h (4 Bft) 98,28 %
16.06.2016 17:00 27,8 C 43 % 996,8 hPa 0,0 l/m 12,4 km/h (3 Bft) O-NO 0,70 h 0,533 mm 1,7 UV-I 367 W/m 14,0 C 27,0 C 20,3 km/h (4 Bft) 99,50 %
16.06.2016 18:00 27,4 C 44 % 996,5 hPa 0,0 l/m 10,3 km/h (2 Bft) O-SO 0,60 h 0,356 mm 0,8 UV-I 236 W/m 13,9 C 26,8 C 17,4 km/h (3 Bft) 98,18 %
16.06.2016 19:00 25,1 C 53 % 997,1 hPa 0,0 l/m 12,7 km/h (3 Bft) O 0,00 h 0,254 mm 0,0 UV-I 34 W/m 14,7 C 24,0 C 21,1 km/h (4 Bft) 99,47 %
16.06.2016 20:00 20,9 C 80 % 998,5 hPa 0,0 l/m 18,1 km/h (3 Bft) W-SW 0,00 h 0,127 mm 0,0 UV-I 18 W/m 17,2 C 17,7 C 27,4 km/h (4 Bft) 97,98 %
16.06.2016 21:00 18,5 C 85 % 999,5 hPa 0,0 l/m 17,0 km/h (3 Bft) W-SW 0,00 h 0,051 mm 0,0 UV-I 0 W/m 15,9 C 15,0 C 25,6 km/h (4 Bft) 99,09 %
16.06.2016 22:00 17,0 C 89 % 1000,4 hPa 0,2 l/m 12,4 km/h (3 Bft) SW 0,00 h 0,025 mm 0,0 UV-I 0 W/m 15,1 C 14,5 C 18,9 km/h (3 Bft) 97,85 %
16.06.2016 23:00 16,1 C 89 % 1000,4 hPa 0,0 l/m 9,8 km/h (2 Bft) W-SW 0,00 h 0,026 mm 0,0 UV-I 0 W/m 14,3 C 14,5 C 15,6 km/h (3 Bft) 99,24 %
17.06.2016 00:00 15,8 C 88 % 999,6 hPa 0,0 l/m 6,8 km/h (2 Bft) W-SW 0,00 h 0,000 mm 0,0 UV-I 0 W/m 13,9 C 15,2 C 11,5 km/h (2 Bft) 94,49 %
17.06.2016 01:00 15,8 C 85 % 999,4 hPa 0,0 l/m 10,7 km/h (2 Bft) W-SW 0,00 h 0,025 mm 0,0 UV-I 0 W/m 13,3 C 13,8 C 16,3 km/h (3 Bft) 99,45 %
17.06.2016 02:00 15,1 C 87 % 999,2 hPa 0,2 l/m 11,2 km/h (2 Bft) W-SW 0,00 h 0,026 mm 0,0 UV-I 0 W/m 12,9 C 12,8 C 18,0 km/h (3 Bft) 97,57 %
17.06.2016 03:00 14,3 C 92 % 998,9 hPa 0,0 l/m 9,9 km/h (2 Bft) SW 0,00 h 0,025 mm 0,0 UV-I 0 W/m 12,9 C 12,5 C 15,1 km/h (3 Bft) 99,20 %
17.06.2016 04:00 14,0 C 93 % 999,3 hPa 0,4 l/m 11,1 km/h (2 Bft) SW 0,00 h 0,000 mm 0,0 UV-I 0 W/m 12,9 C 11,6 C 17,1 km/h (3 Bft) 98,07 %
17.06.2016 05:00 13,6 C 92 % 1000,4 hPa 0,4 l/m 16,5 km/h (3 Bft) W-SW 0,00 h 0,000 mm 0,0 UV-I 6 W/m 12,4 C 9,2 C 24,7 km/h (4 Bft) 99,55 %
17.06.2016 06:00 13,1 C 92 % 1002,0 hPa 0,2 l/m 17,1 km/h (3 Bft) W-SW 0,00 h 0,026 mm 0,0 UV-I 43 W/m 11,9 C 8,3 C 25,4 km/h (4 Bft) 98,25 %
17.06.2016 07:00 13,2 C 91 % 1003,3 hPa 0,0 l/m 16,9 km/h (3 Bft) W-SW 0,00 h 0,025 mm 0,0 UV-I 52 W/m 11,7 C 8,3 C 25,9 km/h (4 Bft) 99,75 %
17.06.2016 08:00 13,4 C 90 % 1004,2 hPa 0,0 l/m 15,6 km/h (3 Bft) W-SW 0,00 h 0,051 mm 0,7 UV-I 103 W/m 11,7 C 9,0 C 23,6 km/h (4 Bft) 98,08 %
17.06.2016 09:00 14,0 C 84 % 1005,6 hPa 0,0 l/m 22,4 km/h (4 Bft) SW 0,23 h 0,076 mm 1,7 UV-I 342 W/m 11,3 C 8,0 C 34,4 km/h (5 Bft) 99,51 %
17.06.2016 10:00 14,4 C 76 % 1007,0 hPa 0,0 l/m 20,5 km/h (4 Bft) W-SW 0,10 h 0,229 mm 2,0 UV-I 350 W/m 10,1 C 8,9 C 31,7 km/h (5 Bft) 97,83 %
17.06.2016 11:00 15,2 C 71 % 1008,3 hPa 0,0 l/m 18,6 km/h (3 Bft) W-SW 0,10 h 0,254 mm 2,4 UV-I 339 W/m 10,1 C 10,5 C 29,6 km/h (5 Bft) 99,72 %
17.06.2016 12:00 16,0 C 68 % 1009,3 hPa 0,0 l/m 17,5 km/h (3 Bft) W-SW 0,00 h 0,254 mm 1,8 UV-I 261 W/m 10,0 C 11,8 C 28,4 km/h (4 Bft) 97,48 %
17.06.2016 13:00 17,6 C 63 % 1010,1 hPa 0,0 l/m 17,4 km/h (3 Bft) W-SW 0,37 h 0,228 mm 4,4 UV-I 515 W/m 10,5 C 13,8 C 27,5 km/h (4 Bft) 99,15 %
17.06.2016 14:00 18,0 C 62 % 1010,6 hPa 0,0 l/m 11,4 km/h (2 Bft) W-SW 0,10 h 0,432 mm 3,3 UV-I 383 W/m 10,6 C 16,0 C 19,6 km/h (3 Bft) 98,52 %
17.06.2016 15:00 19,5 C 57 % 1010,6 hPa 0,0 l/m 11,3 km/h (2 Bft) W-SW 0,80 h 0,279 mm 4,0 UV-I 754 W/m 10,8 C 17,7 C 18,9 km/h (3 Bft) 98,82 %
17.06.2016 16:00 20,6 C 53 % 1010,5 hPa 0,0 l/m 9,2 km/h (2 Bft) W-SW 1,00 h 0,432 mm 3,0 UV-I 664 W/m 10,7 C 19,5 C 15,6 km/h (3 Bft) 98,50 %
17.06.2016 17:00 20,8 C 52 % 1010,7 hPa 0,0 l/m 5,3 km/h (1 Bft) W-SW 0,67 h 0,432 mm 1,5 UV-I 376 W/m 10,6 C 20,5 C 10,0 km/h (2 Bft) 98,74 %
17.06.2016 18:00 20,5 C 55 % 1011,1 hPa 0,0 l/m 4,5 km/h (1 Bft) W 0,73 h 0,254 mm 0,7 UV-I 254 W/m 11,2 C 20,4 C 8,7 km/h (2 Bft) 99,02 %
17.06.2016 19:00 20,5 C 56 % 1011,5 hPa 0,0 l/m 3,1 km/h (1 Bft) W 0,93 h 0,178 mm 0,0 UV-I 212 W/m 11,4 C 20,5 C 6,5 km/h (2 Bft) 98,48 %
17.06.2016 20:00 19,2 C 60 % 1012,0 hPa 0,0 l/m 3,7 km/h (1 Bft) W 0,20 h 0,152 mm 0,0 UV-I 34 W/m 11,1 C 19,2 C 5,7 km/h (1 Bft) 98,63 %
17.06.2016 21:00 17,6 C 67 % 1012,9 hPa 0,0 l/m 5,2 km/h (1 Bft) W-SW 0,00 h 0,051 mm 0,0 UV-I 10 W/m 11,3 C 17,5 C 8,0 km/h (2 Bft) 98,79 %
17.06.2016 22:00 15,9 C 75 % 1013,8 hPa 0,0 l/m 3,4 km/h (1 Bft) W-SW 0,00 h 0,025 mm 0,0 UV-I 0 W/m 11,5 C 15,9 C 5,5 km/h (1 Bft) 98,55 %
17.06.2016 23:00 14,5 C 82 % 1014,3 hPa 0,0 l/m 2,0 km/h (1 Bft) S-SW 0,00 h 0,026 mm 0,0 UV-I 0 W/m 11,5 C 14,5 C 3,6 km/h (1 Bft) 98,08 %
18.06.2016 00:00 14,5 C 84 % 1014,7 hPa 0,0 l/m 0,3 km/h (0 Bft) W-SW 0,00 h 0,000 mm 0,0 UV-I 0 W/m 11,8 C 14,5 C 1,2 km/h (1 Bft) 97,83 %
18.06.2016 01:00 14,3 C 84 % 1015,2 hPa 0,0 l/m 0,2 km/h (0 Bft) W-SW 0,00 h 0,000 mm 0,0 UV-I 0 W/m 11,6 C 14,3 C 1,3 km/h (1 Bft) 97,82 %
18.06.2016 02:00 14,0 C 84 % 1015,4 hPa 0,0 l/m 0,5 km/h (0 Bft) W 0,00 h 0,000 mm 0,0 UV-I 0 W/m 11,3 C 14,0 C 1,4 km/h (1 Bft) 98,10 %
18.06.2016 03:00 13,6 C 86 % 1015,4 hPa 0,0 l/m 0,8 km/h (0 Bft) S-SW 0,00 h 0,000 mm 0,0 UV-I 0 W/m 11,3 C 13,6 C 1,9 km/h (1 Bft) 97,88 %
18.06.2016 04:00 12,7 C 87 % 1015,4 hPa 0,0 l/m 1,9 km/h (1 Bft) S-SW 0,00 h 0,000 mm 0,0 UV-I 0 W/m 10,7 C 12,7 C 3,1 km/h (1 Bft) 99,07 %
18.06.2016 05:00 11,8 C 90 % 1015,6 hPa 0,0 l/m 2,8 km/h (1 Bft) S 0,00 h 0,000 mm 0,0 UV-I 12 W/m 10,2 C 11,8 C 4,3 km/h (1 Bft) 98,69 %
18.06.2016 06:00 11,9 C 92 % 1016,1 hPa 0,0 l/m 1,0 km/h (0 Bft) S 0,13 h 0,000 mm 0,0 UV-I 70 W/m 10,6 C 11,9 C 2,1 km/h (1 Bft) 98,21 %
18.06.2016 07:00 15,2 C 79 % 1016,5 hPa 0,0 l/m 2,7 km/h (1 Bft) O-SO 1,00 h 0,051 mm 0,7 UV-I 271 W/m 11,6 C 15,2 C 4,7 km/h (1 Bft) 98,84 %
18.06.2016 08:00 18,0 C 68 % 1016,7 hPa 0,0 l/m 3,5 km/h (1 Bft) NO 1,00 h 0,152 mm 1,6 UV-I 449 W/m 12,0 C 18,0 C 6,1 km/h (2 Bft) 98,42 %
18.06.2016 09:00 19,4 C 64 % 1016,9 hPa 0,0 l/m 2,0 km/h (1 Bft) O 1,00 h 0,280 mm 2,8 UV-I 535 W/m 12,5 C 19,4 C 4,5 km/h (1 Bft) 98,66 %
18.06.2016 10:00 20,9 C 57 % 1016,9 hPa 0,0 l/m 2,2 km/h (1 Bft) W-NW 1,00 h 0,330 mm 4,2 UV-I 738 W/m 12,0 C 20,9 C 4,9 km/h (1 Bft) 98,17 %
18.06.2016 11:00 21,6 C 56 % 1016,8 hPa 0,0 l/m 3,2 km/h (1 Bft) N-NO 0,97 h 0,432 mm 5,4 UV-I 783 W/m 12,5 C 21,6 C 6,2 km/h (2 Bft) 98,55 %
18.06.2016 12:00 22,5 C 52 % 1016,4 hPa 0,0 l/m 3,2 km/h (1 Bft) N-NW 1,00 h 0,482 mm 6,1 UV-I 878 W/m 12,0 C 22,5 C 6,5 km/h (2 Bft) 98,53 %
18.06.2016 13:00 23,1 C 50 % 1015,6 hPa 0,0 l/m 3,5 km/h (1 Bft) N-NO 1,00 h 0,559 mm 6,3 UV-I 918 W/m 12,1 C 23,1 C 7,5 km/h (2 Bft) 98,20 %
18.06.2016 14:00 23,5 C 50 % 1015,0 hPa 0,0 l/m 3,5 km/h (1 Bft) N-NO 0,70 h 0,584 mm 4,8 UV-I 689 W/m 12,4 C 23,5 C 7,2 km/h (2 Bft) 98,73 %
18.06.2016 15:00 24,1 C 46 % 1014,5 hPa 0,0 l/m 3,2 km/h (1 Bft) NW 0,77 h 0,483 mm 4,0 UV-I 670 W/m 11,7 C 24,0 C 6,4 km/h (2 Bft) 98,52 %
18.06.2016 16:00 24,2 C 45 % 1014,5 hPa 0,0 l/m 2,7 km/h (1 Bft) W-NW 0,57 h 0,432 mm 2,4 UV-I 452 W/m 11,5 C 24,2 C 5,1 km/h (1 Bft) 99,10 %
18.06.2016 17:00 22,3 C 51 % 1014,4 hPa 0,0 l/m 4,7 km/h (1 Bft) SO 0,10 h 0,304 mm 1,0 UV-I 116 W/m 11,8 C 22,2 C 8,5 km/h (2 Bft) 97,52 %
18.06.2016 18:00 17,4 C 71 % 1015,5 hPa 0,6 l/m 17,0 km/h (3 Bft) S 0,00 h 0,102 mm 0,0 UV-I 8 W/m 11,9 C 13,6 C 28,2 km/h (4 Bft) 98,55 %
18.06.2016 19:00 14,2 C 85 % 1016,2 hPa 2,2 l/m 15,8 km/h (3 Bft) SW 0,00 h 0,076 mm 0,0 UV-I 9 W/m 11,7 C 10,0 C 24,6 km/h (4 Bft) 97,71 %
18.06.2016 20:00 13,7 C 89 % 1016,2 hPa 0,2 l/m 11,2 km/h (2 Bft) S 0,03 h 0,026 mm 0,0 UV-I 11 W/m 11,9 C 11,1 C 18,2 km/h (3 Bft) 99,06 %
18.06.2016 21:00 13,7 C 89 % 1016,6 hPa 0,0 l/m 4,1 km/h (1 Bft) N-NW 0,00 h 0,025 mm 0,0 UV-I 8 W/m 11,9 C 13,3 C 7,8 km/h (2 Bft) 97,74 %
18.06.2016 22:00 13,5 C 91 % 1017,2 hPa 0,0 l/m 2,3 km/h (1 Bft) NO 0,00 h 0,000 mm 0,0 UV-I 0 W/m 12,1 C 13,5 C 4,0 km/h (1 Bft) 99,01 %
18.06.2016 23:00 13,6 C 92 % 1017,1 hPa 0,0 l/m 0,3 km/h (0 Bft) W 0,00 h 0,000 mm 0,0 UV-I 0 W/m 12,3 C 13,6 C 1,2 km/h (1 Bft) 97,59 %
19.06.2016 00:00 13,3 C 93 % 1017,2 hPa 0,0 l/m 1,9 km/h (1 Bft) S-SW 0,00 h 0,000 mm 0,0 UV-I 0 W/m 12,2 C 13,3 C 3,6 km/h (1 Bft) 95,29 %
19.06.2016 01:00 13,2 C 93 % 1017,2 hPa 0,0 l/m 4,2 km/h (1 Bft) S 0,00 h 0,000 mm 0,0 UV-I 0 W/m 12,1 C 13,2 C 7,2 km/h (2 Bft) 97,77 %
19.06.2016 02:00 13,2 C 93 % 1017,3 hPa 0,0 l/m 5,6 km/h (1 Bft) SW 0,00 h 0,000 mm 0,0 UV-I 0 W/m 12,1 C 13,0 C 8,8 km/h (2 Bft) 98,67 %
19.06.2016 03:00 13,0 C 93 % 1017,3 hPa 0,0 l/m 6,2 km/h (2 Bft) SW 0,00 h 0,000 mm 0,0 UV-I 0 W/m 11,9 C 12,6 C 9,5 km/h (2 Bft) 97,36 %
19.06.2016 04:00 13,0 C 94 % 1017,6 hPa 0,0 l/m 10,2 km/h (2 Bft) SW 0,00 h 0,000 mm 0,0 UV-I 0 W/m 12,0 C 10,9 C 15,7 km/h (3 Bft) 98,07 %
19.06.2016 05:00 13,3 C 93 % 1018,0 hPa 0,0 l/m 8,3 km/h (2 Bft) W-SW 0,00 h 0,000 mm 0,0 UV-I 10 W/m 12,1 C 12,1 C 13,1 km/h (3 Bft) 96,74 %
19.06.2016 06:00 13,4 C 92 % 1018,4 hPa 0,0 l/m 9,1 km/h (2 Bft) SW 0,00 h 0,000 mm 0,0 UV-I 22 W/m 12,1 C 11,9 C 13,9 km/h (3 Bft) 98,39 %
19.06.2016 07:00 13,7 C 91 % 1018,8 hPa 0,0 l/m 7,9 km/h (2 Bft) W-SW 0,00 h 0,025 mm 0,0 UV-I 72 W/m 12,4 C 12,7 C 13,3 km/h (3 Bft) 97,06 %
19.06.2016 08:00 14,3 C 91 % 1019,1 hPa 0,0 l/m 5,4 km/h (1 Bft) W-SW 0,00 h 0,051 mm 0,5 UV-I 105 W/m 12,8 C 14,2 C 9,5 km/h (2 Bft) 98,97 %
19.06.2016 09:00 14,8 C 90 % 1019,4 hPa 0,0 l/m 3,4 km/h (1 Bft) W-SW 0,00 h 0,051 mm 0,8 UV-I 153 W/m 13,1 C 14,8 C 6,2 km/h (2 Bft) 96,46 %
19.06.2016 10:00 14,8 C 90 % 1019,5 hPa 0,0 l/m 2,1 km/h (1 Bft) N-NW 0,00 h 0,076 mm 0,9 UV-I 126 W/m 13,2 C 14,8 C 5,2 km/h (1 Bft) 98,98 %
19.06.2016 11:00 15,2 C 90 % 1019,6 hPa 0,0 l/m 3,5 km/h (1 Bft) N 0,00 h 0,076 mm 1,9 UV-I 269 W/m 13,6 C 15,2 C 8,3 km/h (2 Bft) 97,36 %
19.06.2016 12:00 16,6 C 81 % 1019,4 hPa 0,0 l/m 5,2 km/h (1 Bft) N-NW 0,80 h 0,153 mm 4,4 UV-I 592 W/m 13,3 C 16,4 C 11,7 km/h (2 Bft) 98,90 %
19.06.2016 13:00 17,5 C 78 % 1019,2 hPa 0,0 l/m 3,8 km/h (1 Bft) W-NW 0,47 h 0,330 mm 3,7 UV-I 504 W/m 13,6 C 17,5 C 9,0 km/h (2 Bft) 98,15 %
19.06.2016 14:00 18,3 C 73 % 1018,8 hPa 0,0 l/m 5,1 km/h (1 Bft) W-SW 0,83 h 0,279 mm 4,0 UV-I 613 W/m 13,4 C 18,1 C 10,4 km/h (2 Bft) 99,22 %
19.06.2016 15:00 18,6 C 69 % 1019,0 hPa 0,0 l/m 5,1 km/h (1 Bft) W 0,60 h 0,356 mm 2,7 UV-I 429 W/m 12,9 C 18,5 C 10,1 km/h (2 Bft) 97,86 %
19.06.2016 16:00 18,5 C 71 % 1018,8 hPa 0,0 l/m 6,5 km/h (2 Bft) W 0,00 h 0,254 mm 1,4 UV-I 258 W/m 13,2 C 18,1 C 11,1 km/h (2 Bft) 98,99 %
19.06.2016 17:00 18,3 C 73 % 1018,5 hPa 0,0 l/m 6,8 km/h (2 Bft) W-SW 0,00 h 0,178 mm 0,7 UV-I 175 W/m 13,2 C 17,8 C 12,1 km/h (2 Bft) 97,89 %
19.06.2016 18:00 17,9 C 75 % 1018,4 hPa 0,0 l/m 7,3 km/h (2 Bft) W-SW 0,00 h 0,127 mm 0,5 UV-I 100 W/m 13,3 C 17,3 C 12,6 km/h (3 Bft) 99,21 %
19.06.2016 19:00 17,4 C 78 % 1018,7 hPa 0,0 l/m 8,0 km/h (2 Bft) W-SW 0,00 h 0,076 mm 0,0 UV-I 47 W/m 13,5 C 16,6 C 13,4 km/h (3 Bft) 98,15 %
19.06.2016 20:00 16,4 C 82 % 1018,9 hPa 0,0 l/m 11,2 km/h (2 Bft) SW 0,00 h 0,051 mm 0,0 UV-I 12 W/m 13,3 C 14,3 C 16,8 km/h (3 Bft) 99,18 %
19.06.2016 21:00 15,3 C 85 % 1019,5 hPa 0,0 l/m 14,3 km/h (3 Bft) SW 0,00 h 0,025 mm 0,0 UV-I 4 W/m 12,8 C 11,8 C 22,5 km/h (4 Bft) 97,68 %
19.06.2016 22:00 14,8 C 87 % 1020,0 hPa 0,0 l/m 13,3 km/h (3 Bft) W-SW 0,00 h 0,026 mm 0,0 UV-I 0 W/m 12,6 C 11,6 C 21,1 km/h (4 Bft) 99,37 %
19.06.2016 23:00 14,5 C 90 % 1020,1 hPa 0,0 l/m 11,3 km/h (2 Bft) W-SW 0,00 h 0,025 mm 0,0 UV-I 0 W/m 12,8 C 12,0 C 17,0 km/h (3 Bft) 98,18 %
Min-Datum _ 18.06.16 18.06.16 16.06.16 - 14.06.16 - - - - - 17.06.16 15.06.16 14.06.16 19.06.16
_ Min-Zeit 06:06 15:34 18:02 - 13:53 - - - - - 12:22 05:44 13:53 00:02
Minimum _ 11,6 C 40 % 996,3 hPa - 0,0 km/h (0 Bft) - - - - - 9,5 C 5,3 C 0,0 km/h (0 Bft) 6,25 %
Max-Datum _ 16.06.16 14.06.16 19.06.16 13.06.16 17.06.16 - 16.06.16 16.06.16 16.06.16 14.06.16 16.06.16 16.06.16 17.06.16 13.06.16
_ Max-Zeit 16:44 00:40 23:06 18:07 09:40 - 10:56 15:00 13:18 15:07 12:54 18:16 09:30 00:00
Maximum _ 28,4 C 96 % 1020,4 hPa 6,2 l/m 31,9 km/h
SW (5 Bft)
- 0,10 h 0,610 mm 7,1 UV-I 1150 W/m 18,0 C 28,1 C 53,1 km/h
W-SW (7 Bft)
100,00 %
Durchschnitt _ 16,7 C 79 % 1006,9 hPa #30,4 l/m 7,9 km/h (2 Bft) SW #44:34 h #24,232 mm 2,6 UV-I 313 W/m 12,7 C 15,4 C 12,3 km/h (3 Bft) 98,47 %